Time;durP1;ratioP1;P1;durP2;ratioP2;P2;SDS_P1;SDS_P2;PMS_P1;PMS_P2;Temp;Humidity;BMP_temperature;BMP_pressure;BME280_temperature;BME280_humidity;BME280_pressure;Samples;Min_cycle;Max_cycle;Signal;HPM_P1;HPM_P2
2022/01/07 00:00:00;;;;;;;11.77;5.00;;;0.00;99.90;;;;;;5050841;28;20227;-74
2022/01/07 00:02:52;;;;;;;14.87;5.37;;;0.00;99.90;;;;;;5053003;28;20729;-75
2022/01/07 00:05:41;;;;;;;13.33;5.77;;;0.00;99.90;;;;;;5047081;28;20623;-75
2022/01/07 00:08:30;;;;;;;12.03;5.93;;;0.00;99.90;;;;;;5050622;28;20228;-74
2022/01/07 00:11:20;;;;;;;14.40;6.37;;;-0.10;99.90;;;;;;5049672;28;20235;-73
2022/01/07 00:14:09;;;;;;;12.23;5.77;;;-0.20;99.90;;;;;;5049298;28;20225;-73
2022/01/07 00:16:58;;;;;;;16.43;6.83;;;-0.20;99.90;;;;;;5037618;28;20228;-73
2022/01/07 00:19:46;;;;;;;12.30;5.97;;;-0.10;99.90;;;;;;5051726;28;20243;-73
2022/01/07 00:22:35;;;;;;;16.77;6.83;;;-0.10;99.90;;;;;;5037749;28;20224;-76
2022/01/07 00:25:24;;;;;;;16.07;6.80;;;-0.10;99.90;;;;;;5055214;28;20220;-73
2022/01/07 00:28:14;;;;;;;16.13;6.90;;;0.00;99.90;;;;;;5049683;28;20232;-72
2022/01/07 00:31:03;;;;;;;14.97;6.87;;;-0.10;99.90;;;;;;5035991;28;20238;-73
2022/01/07 00:33:51;;;;;;;16.57;7.20;;;-0.10;99.90;;;;;;5051286;28;20286;-72
2022/01/07 00:36:40;;;;;;;20.03;7.53;;;-0.10;99.90;;;;;;5048908;28;20692;-71
2022/01/07 00:39:28;;;;;;;14.83;7.10;;;-0.10;99.90;;;;;;5045472;28;20225;-73
2022/01/07 00:42:17;;;;;;;19.03;8.13;;;-0.10;99.90;;;;;;5041580;28;20231;-72
2022/01/07 00:45:08;;;;;;;15.13;7.20;;;0.00;99.90;;;;;;5048274;28;20331;-73
2022/01/07 00:47:57;;;;;;;18.53;8.10;;;0.00;99.90;;;;;;5042052;28;20223;-73
2022/01/07 00:50:46;;;;;;;17.93;8.33;;;0.00;99.90;;;;;;5051086;28;20221;-74
2022/01/07 00:53:34;;;;;;;14.77;7.13;;;0.00;99.90;;;;;;5058350;28;20226;-69
2022/01/07 00:56:23;;;;;;;19.13;7.87;;;-0.10;99.90;;;;;;5056431;28;20338;-72
2022/01/07 00:59:13;;;;;;;15.57;7.07;;;-0.10;99.90;;;;;;5056013;28;20755;-71
2022/01/07 01:02:03;;;;;;;17.17;7.40;;;-0.10;99.90;;;;;;5058527;28;20538;-70
2022/01/07 01:05:03;;;;;;;15.00;6.57;;;-0.10;99.90;;;;;;5038010;28;20230;-73
2022/01/07 01:07:51;;;;;;;14.17;6.53;;;-0.20;99.90;;;;;;5042920;28;20216;-73
2022/01/07 01:10:40;;;;;;;15.20;6.90;;;-0.20;99.90;;;;;;5039420;28;20323;-73
2022/01/07 01:13:31;;;;;;;18.30;6.40;;;-0.10;99.90;;;;;;5043192;28;20239;-74
2022/01/07 01:16:20;;;;;;;17.60;6.03;;;-0.20;99.90;;;;;;5040227;28;20605;-73
2022/01/07 01:19:10;;;;;;;18.50;7.10;;;-0.20;99.90;;;;;;5039877;28;20240;-74
2022/01/07 01:21:58;;;;;;;17.97;6.97;;;-0.20;99.90;;;;;;5034845;28;20216;-73
2022/01/07 01:24:47;;;;;;;18.60;7.37;;;-0.20;99.90;;;;;;5054934;28;20226;-73
2022/01/07 01:27:36;;;;;;;14.30;6.60;;;-0.20;99.90;;;;;;5051974;28;20246;-75
2022/01/07 01:30:28;;;;;;;17.60;7.23;;;-0.30;99.90;;;;;;5036665;28;20221;-74
2022/01/07 01:33:18;;;;;;;15.60;7.23;;;-0.30;99.90;;;;;;5049795;28;20339;-73
2022/01/07 01:36:08;;;;;;;17.90;7.43;;;-0.20;99.90;;;;;;5054386;28;20226;-75
2022/01/07 01:38:57;;;;;;;15.40;6.90;;;-0.30;99.90;;;;;;5051881;28;20236;-74
2022/01/07 01:41:46;;;;;;;16.40;7.43;;;-0.20;99.90;;;;;;5038313;28;20234;-73
2022/01/07 01:44:35;;;;;;;16.80;7.60;;;-0.30;99.90;;;;;;5056122;28;20227;-74
2022/01/07 01:47:23;;;;;;;18.03;7.93;;;-0.30;99.90;;;;;;5053986;28;20704;-72
2022/01/07 01:50:13;;;;;;;17.97;6.87;;;-0.20;99.90;;;;;;5042064;28;20262;-73
2022/01/07 01:53:03;;;;;;;17.23;7.30;;;-0.20;99.90;;;;;;5050246;28;20228;-74
2022/01/07 01:55:52;;;;;;;15.50;7.17;;;-0.30;99.90;;;;;;5050039;28;20241;-74
2022/01/07 01:58:41;;;;;;;20.03;8.00;;;-0.30;99.90;;;;;;5041376;28;20216;-73
2022/01/07 02:01:30;;;;;;;21.17;8.00;;;-0.40;99.90;;;;;;5038426;28;20225;-76
2022/01/07 02:04:19;;;;;;;14.43;6.77;;;-0.40;99.90;;;;;;5050048;28;20217;-72
2022/01/07 02:07:08;;;;;;;14.93;6.10;;;-0.40;99.90;;;;;;5056389;28;20797;-74
2022/01/07 02:09:59;;;;;;;15.50;6.63;;;-0.50;99.90;;;;;;5055971;28;20241;-72
2022/01/07 02:12:48;;;;;;;14.33;6.63;;;-0.50;99.90;;;;;;5054998;28;20310;-73
2022/01/07 02:15:37;;;;;;;15.47;6.43;;;-0.40;99.90;;;;;;5041841;28;20225;-74
2022/01/07 02:18:26;;;;;;;16.13;6.37;;;-0.50;99.90;;;;;;5039904;28;20373;-72
2022/01/07 02:21:20;;;;;;;13.80;5.77;;;-0.50;99.90;;;;;;5054513;28;20230;-74
2022/01/07 02:24:09;;;;;;;13.47;5.97;;;-0.50;99.90;;;;;;5038978;28;20223;-73
2022/01/07 02:26:57;;;;;;;18.90;6.23;;;-0.50;99.90;;;;;;5036059;28;20258;-73
2022/01/07 02:29:48;;;;;;;15.73;6.07;;;-0.60;99.90;;;;;;5054371;28;20218;-73
2022/01/07 02:32:37;;;;;;;15.30;5.80;;;-0.60;99.90;;;;;;5056986;28;20225;-74
2022/01/07 02:35:30;;;;;;;14.13;5.63;;;-0.50;99.90;;;;;;5052814;28;20227;-73
2022/01/07 02:38:20;;;;;;;14.73;5.87;;;-0.60;99.90;;;;;;5054659;28;20590;-74
2022/01/07 02:41:08;;;;;;;14.20;5.57;;;-0.60;99.90;;;;;;5053444;28;20226;-74
2022/01/07 02:43:57;;;;;;;11.43;5.57;;;-0.60;99.90;;;;;;5053578;28;20278;-73
2022/01/07 02:46:46;;;;;;;14.33;5.97;;;-0.50;99.90;;;;;;5053163;28;20214;-73
2022/01/07 02:49:35;;;;;;;13.40;5.60;;;-0.60;99.90;;;;;;5054380;28;20254;-74
2022/01/07 02:52:24;;;;;;;13.83;5.70;;;-0.50;99.90;;;;;;5049984;28;20308;-73
2022/01/07 02:55:14;;;;;;;16.00;5.87;;;-0.60;99.90;;;;;;5053490;28;20225;-74
2022/01/07 02:58:03;;;;;;;11.93;5.23;;;-0.60;99.90;;;;;;5053609;28;20215;-75
2022/01/07 03:00:52;;;;;;;14.80;6.47;;;-0.70;99.90;;;;;;5054445;28;20229;-75
2022/01/07 03:03:41;;;;;;;14.03;5.87;;;-0.60;99.90;;;;;;5050568;28;20311;-74
2022/01/07 03:06:29;;;;;;;14.03;6.03;;;-0.70;99.90;;;;;;5054096;28;20219;-75
2022/01/07 03:09:18;;;;;;;15.03;5.60;;;-0.70;99.90;;;;;;5042688;28;20253;-75
2022/01/07 03:12:09;;;;;;;14.37;5.80;;;-0.70;99.90;;;;;;5043125;28;20289;-74
2022/01/07 03:14:57;;;;;;;14.50;6.33;;;-0.60;99.90;;;;;;5038586;28;21043;-75
2022/01/07 03:17:46;;;;;;;16.30;6.03;;;-0.60;99.90;;;;;;5035955;28;20871;-74
2022/01/07 03:20:38;;;;;;;13.37;6.53;;;-0.60;99.90;;;;;;5054795;28;20226;-75
2022/01/07 03:23:27;;;;;;;15.57;5.93;;;-0.60;99.90;;;;;;5052231;28;20214;-75
2022/01/07 03:26:16;;;;;;;15.53;6.03;;;-0.70;99.90;;;;;;5050351;28;20590;-74
2022/01/07 03:29:10;;;;;;;14.63;6.27;;;-0.70;99.90;;;;;;5052308;28;20222;-73
2022/01/07 03:31:59;;;;;;;13.93;5.77;;;-0.70;99.90;;;;;;5050372;28;20234;-74
2022/01/07 03:34:48;;;;;;;18.23;6.30;;;-0.70;99.90;;;;;;5053634;28;21049;-73
2022/01/07 03:37:37;;;;;;;11.10;5.57;;;-0.80;99.90;;;;;;5038770;28;20741;-74
2022/01/07 03:40:25;;;;;;;13.20;6.00;;;-0.70;99.90;;;;;;5052990;28;20224;-73
2022/01/07 03:43:14;;;;;;;16.73;6.20;;;-0.70;99.90;;;;;;5053860;28;20222;-73
2022/01/07 03:46:06;;;;;;;14.67;5.77;;;-0.70;99.90;;;;;;5040323;28;20233;-73
2022/01/07 03:48:54;;;;;;;15.90;6.70;;;-0.70;99.90;;;;;;5053291;28;20767;-73
2022/01/07 03:51:43;;;;;;;14.30;5.90;;;-0.70;99.90;;;;;;5054110;28;20666;-74
2022/01/07 03:54:31;;;;;;;12.20;5.73;;;-0.80;99.90;;;;;;5054677;28;20252;-74
2022/01/07 03:57:20;;;;;;;14.67;6.57;;;-0.80;99.90;;;;;;5006692;28;20231;-71
2022/01/07 04:00:12;;;;;;;13.17;5.90;;;-0.80;99.90;;;;;;5021175;28;20236;-72
2022/01/07 04:03:03;;;;;;;17.77;6.47;;;-0.80;99.90;;;;;;5035106;28;20237;-72
2022/01/07 04:05:52;;;;;;;17.57;6.80;;;-0.80;99.90;;;;;;5032824;28;20361;-72
2022/01/07 04:08:40;;;;;;;14.43;6.53;;;-0.80;99.90;;;;;;5021505;28;20215;-70
2022/01/07 04:11:29;;;;;;;13.17;6.60;;;-0.90;99.90;;;;;;5037345;28;20788;-73
2022/01/07 04:14:18;;;;;;;16.60;6.80;;;-0.90;99.90;;;;;;5023199;28;20234;-74
2022/01/07 04:17:07;;;;;;;12.90;6.57;;;-0.80;99.90;;;;;;5020814;28;20340;-73
2022/01/07 04:19:57;;;;;;;17.37;7.37;;;-0.80;99.90;;;;;;5034163;28;20889;-76
2022/01/07 04:22:46;;;;;;;18.50;6.93;;;-0.90;99.90;;;;;;5021328;28;20236;-74
2022/01/07 04:25:35;;;;;;;13.80;6.60;;;-0.90;99.90;;;;;;5034084;28;20584;-73
2022/01/07 04:28:24;;;;;;;13.77;6.47;;;-0.90;99.90;;;;;;5017546;28;20224;-73
2022/01/07 04:31:12;;;;;;;16.93;6.77;;;-0.90;99.90;;;;;;5021419;28;20233;-76
2022/01/07 04:34:01;;;;;;;19.77;7.40;;;-0.90;99.90;;;;;;5020705;28;20221;-74
2022/01/07 04:36:51;;;;;;;15.00;7.10;;;-0.90;99.90;;;;;;5015338;28;20210;-74
2022/01/07 04:39:40;;;;;;;12.73;5.73;;;-0.90;99.90;;;;;;5021794;28;20222;-75
2022/01/07 04:42:29;;;;;;;13.23;6.67;;;-0.90;99.90;;;;;;5034860;28;20224;-75
2022/01/07 04:45:22;;;;;;;17.03;6.70;;;-0.80;99.90;;;;;;5030955;28;20349;-76
2022/01/07 04:48:11;;;;;;;17.73;6.80;;;-0.90;99.90;;;;;;5019897;28;20235;-74
2022/01/07 04:51:00;;;;;;;19.90;6.60;;;-0.90;99.90;;;;;;5034893;28;20235;-74
2022/01/07 04:53:50;;;;;;;15.77;6.40;;;-0.90;99.90;;;;;;5033025;28;20225;-74
2022/01/07 04:56:38;;;;;;;15.40;6.57;;;-1.00;99.90;;;;;;5049517;28;20221;-72
2022/01/07 04:59:27;;;;;;;16.13;7.40;;;-1.00;99.90;;;;;;5048812;28;20218;-73
2022/01/07 05:02:19;;;;;;;16.67;6.97;;;-0.80;99.90;;;;;;5040327;28;20219;-73
2022/01/07 05:05:09;;;;;;;14.80;6.20;;;-0.80;99.90;;;;;;5051499;28;20246;-72
2022/01/07 05:07:57;;;;;;;14.40;6.63;;;-0.80;99.90;;;;;;5040479;28;20220;-73
2022/01/07 05:10:48;;;;;;;14.47;6.90;;;-0.80;99.90;;;;;;5048704;28;20228;-73
2022/01/07 05:13:36;;;;;;;14.07;6.53;;;-0.80;99.90;;;;;;5039202;28;20229;-73
2022/01/07 05:16:26;;;;;;;13.13;5.70;;;-0.70;99.90;;;;;;5055495;28;20215;-73
2022/01/07 05:19:15;;;;;;;17.97;6.37;;;-0.70;99.90;;;;;;5049367;28;20234;-72
2022/01/07 05:22:04;;;;;;;17.37;6.90;;;-0.80;99.90;;;;;;5027827;28;20728;-73
2022/01/07 05:24:52;;;;;;;16.93;6.70;;;-0.70;99.90;;;;;;5057284;28;20236;-72
2022/01/07 05:27:42;;;;;;;18.47;6.80;;;-0.80;99.90;;;;;;5057208;28;20219;-73
2022/01/07 05:30:31;;;;;;;16.67;7.10;;;-0.80;99.90;;;;;;5042051;28;20298;-74
2022/01/07 05:33:20;;;;;;;17.97;7.17;;;-0.80;99.90;;;;;;5038975;28;20240;-71
2022/01/07 05:36:14;;;;;;;14.43;6.47;;;-0.80;99.90;;;;;;5048828;28;20246;-74
2022/01/07 05:39:02;;;;;;;15.73;6.77;;;-0.80;99.90;;;;;;5034249;28;20246;-73
2022/01/07 05:41:51;;;;;;;20.50;7.33;;;-0.90;99.90;;;;;;5055657;28;20273;-72
2022/01/07 05:44:42;;;;;;;21.43;7.87;;;-0.90;99.90;;;;;;5044518;28;20222;-74
2022/01/07 05:47:31;;;;;;;15.63;7.20;;;-0.80;99.90;;;;;;5055947;28;20226;-74
2022/01/07 05:50:20;;;;;;;15.07;6.90;;;-0.80;99.90;;;;;;5054621;28;20237;-73
2022/01/07 05:53:10;;;;;;;17.17;7.07;;;-0.80;99.90;;;;;;5058057;28;20237;-72
2022/01/07 05:55:58;;;;;;;15.10;6.37;;;-0.90;99.90;;;;;;5053015;28;20286;-73
2022/01/07 05:58:47;;;;;;;16.87;7.00;;;-1.10;99.90;;;;;;5051352;28;20234;-73
2022/01/07 06:01:37;;;;;;;16.33;7.23;;;-1.10;99.90;;;;;;5045362;28;20234;-73
2022/01/07 06:04:26;;;;;;;19.60;7.57;;;-1.00;99.90;;;;;;5055248;28;20221;-73
2022/01/07 06:07:15;;;;;;;17.17;7.80;;;-1.00;99.90;;;;;;5056751;28;20214;-73
2022/01/07 06:10:04;;;;;;;20.80;7.67;;;-1.10;99.90;;;;;;5037458;28;20230;-72
2022/01/07 06:12:53;;;;;;;21.53;7.87;;;-1.10;99.90;;;;;;5041857;28;20722;-72
2022/01/07 06:15:42;;;;;;;19.07;8.10;;;-1.10;99.90;;;;;;5055970;28;20229;-74
2022/01/07 06:18:31;;;;;;;17.13;7.70;;;-1.20;99.90;;;;;;5045802;28;20569;-75
2022/01/07 06:21:21;;;;;;;16.83;7.77;;;-1.20;99.90;;;;;;5059806;28;20236;-74
2022/01/07 06:24:10;;;;;;;21.97;8.13;;;-1.20;99.90;;;;;;5053110;28;20224;-73
2022/01/07 06:26:58;;;;;;;18.10;7.73;;;-1.30;99.90;;;;;;5058470;28;20233;-74
2022/01/07 06:29:47;;;;;;;20.97;8.10;;;-1.20;99.90;;;;;;5057586;28;20278;-75
2022/01/07 06:32:39;;;;;;;17.80;8.23;;;-1.30;99.90;;;;;;5043067;28;20233;-76
2022/01/07 06:35:34;;;;;;;17.90;7.90;;;-1.30;99.90;;;;;;5047128;28;20238;-74
2022/01/07 06:38:22;;;;;;;20.17;7.77;;;-1.20;99.90;;;;;;5041867;28;20302;-76
2022/01/07 06:41:11;;;;;;;19.27;8.17;;;-1.30;99.90;;;;;;5051153;28;20209;-75
2022/01/07 06:44:00;;;;;;;17.60;7.60;;;-1.30;99.90;;;;;;5051958;28;20212;-74
2022/01/07 06:46:48;;;;;;;19.10;7.90;;;-1.20;99.90;;;;;;5044968;28;20328;-74
2022/01/07 06:49:38;;;;;;;18.63;7.60;;;-1.30;99.90;;;;;;5054634;28;20213;-73
2022/01/07 06:52:29;;;;;;;19.30;7.37;;;-1.30;99.90;;;;;;5055296;28;20228;-74
2022/01/07 06:55:18;;;;;;;18.77;6.93;;;-1.20;99.90;;;;;;5053210;28;20233;-73
2022/01/07 06:58:09;;;;;;;18.23;7.47;;;-1.20;99.90;;;;;;5055383;28;20212;-73
2022/01/07 07:00:58;;;;;;;18.27;6.77;;;-1.20;99.90;;;;;;5046256;28;21836;-74
2022/01/07 07:03:47;;;;;;;18.77;6.77;;;-1.10;99.90;;;;;;5030080;28;20230;-75
2022/01/07 07:06:36;;;;;;;23.77;8.73;;;-1.10;99.90;;;;;;5057448;28;21972;-75
2022/01/07 07:09:26;;;;;;;20.40;6.93;;;-1.10;99.90;;;;;;5043249;28;20698;-74
2022/01/07 07:12:15;;;;;;;15.03;7.20;;;-1.10;99.90;;;;;;5039919;28;20238;-75
2022/01/07 07:15:04;;;;;;;15.17;7.93;;;-1.10;99.90;;;;;;5042586;28;20301;-75
2022/01/07 07:17:53;;;;;;;15.70;6.93;;;-1.10;99.90;;;;;;5040051;28;20216;-75
2022/01/07 07:20:41;;;;;;;14.27;6.80;;;-1.10;99.90;;;;;;5040984;28;20225;-74
2022/01/07 07:23:32;;;;;;;14.27;7.10;;;-1.10;99.90;;;;;;5057787;28;20673;-75
2022/01/07 07:26:22;;;;;;;16.37;6.77;;;-1.00;99.90;;;;;;5055380;28;20224;-74
2022/01/07 07:29:11;;;;;;;14.43;6.80;;;-1.00;99.90;;;;;;5053973;28;20802;-75
2022/01/07 07:32:03;;;;;;;18.43;7.53;;;-1.00;99.90;;;;;;5042173;28;20226;-73
2022/01/07 07:35:02;;;;;;;16.23;6.57;;;-0.90;99.90;;;;;;5038432;28;20221;-75
2022/01/07 07:37:51;;;;;;;18.57;7.53;;;-0.80;99.90;;;;;;5054548;28;20221;-74
2022/01/07 07:40:40;;;;;;;15.90;6.33;;;-0.70;99.90;;;;;;5055932;28;20260;-73
2022/01/07 07:43:30;;;;;;;17.67;7.37;;;-0.60;99.90;;;;;;5039203;28;20255;-75
2022/01/07 07:46:19;;;;;;;19.80;8.17;;;-0.70;99.90;;;;;;5055757;28;20724;-74
2022/01/07 07:49:10;;;;;;;18.67;7.80;;;-0.60;99.90;;;;;;5055611;28;20362;-75
2022/01/07 07:51:58;;;;;;;17.57;7.90;;;-0.50;99.90;;;;;;5055483;28;20220;-74
2022/01/07 07:54:47;;;;;;;17.73;7.40;;;-0.40;99.90;;;;;;5054305;28;20213;-75
2022/01/07 07:57:36;;;;;;;18.97;7.23;;;-0.40;99.90;;;;;;5054296;28;20225;-73
2022/01/07 08:00:26;;;;;;;17.63;7.30;;;-0.30;99.90;;;;;;5040275;28;20221;-70
2022/01/07 08:03:15;;;;;;;21.57;8.60;;;-0.20;99.90;;;;;;5053621;28;20300;-72
2022/01/07 08:06:04;;;;;;;21.33;8.80;;;-0.20;99.90;;;;;;5042611;28;20903;-72
2022/01/07 08:08:52;;;;;;;16.00;8.60;;;-0.10;99.90;;;;;;5053616;28;20224;-73
2022/01/07 08:11:50;;;;;;;17.97;8.60;;;0.00;99.90;;;;;;5055913;28;20226;-74
2022/01/07 08:17:46;;;;;;;20.70;8.17;;;0.00;99.90;;;;;;5055652;28;20590;-71
2022/01/07 08:20:35;;;;;;;20.90;8.93;;;0.10;99.90;;;;;;5050751;28;20304;-69
2022/01/07 08:23:24;;;;;;;23.47;8.87;;;0.10;99.90;;;;;;5042557;28;20517;-68
2022/01/07 08:26:14;;;;;;;23.90;9.50;;;0.10;99.90;;;;;;5041825;28;20263;-69
2022/01/07 08:29:07;;;;;;;21.27;8.80;;;0.10;99.90;;;;;;5060527;28;20703;-68
2022/01/07 08:35:04;;;;;;;18.57;8.97;;;0.20;99.90;;;;;;5052104;28;20242;-72
2022/01/07 08:37:53;;;;;;;18.87;8.57;;;0.30;99.90;;;;;;5059332;28;20858;-71
2022/01/07 08:40:42;;;;;;;18.90;8.70;;;0.30;99.90;;;;;;5056708;28;20682;-72
2022/01/07 08:43:31;;;;;;;17.57;8.50;;;0.50;99.90;;;;;;5057586;28;20217;-72
2022/01/07 08:46:19;;;;;;;17.53;8.33;;;0.50;99.90;;;;;;5042427;28;20226;-71
2022/01/07 08:49:08;;;;;;;17.47;8.67;;;0.50;99.90;;;;;;5052356;28;20376;-72
2022/01/07 08:51:59;;;;;;;19.93;8.33;;;0.60;99.90;;;;;;5048465;28;20235;-72
2022/01/07 08:54:50;;;;;;;17.97;8.93;;;0.70;99.90;;;;;;5049377;28;20231;-70
2022/01/07 08:57:39;;;;;;;18.30;8.33;;;0.90;99.90;;;;;;5043870;28;20299;-71
2022/01/07 09:00:27;;;;;;;19.33;9.43;;;1.00;99.90;;;;;;5047663;28;20217;-71
2022/01/07 09:03:16;;;;;;;16.30;8.63;;;1.00;99.90;;;;;;5052386;28;20220;-71
2022/01/07 09:06:05;;;;;;;19.37;8.40;;;1.00;99.90;;;;;;5056623;28;20224;-73
2022/01/07 09:08:55;;;;;;;29.47;8.57;;;1.20;99.90;;;;;;5037927;28;20272;-71
2022/01/07 09:11:43;;;;;;;19.93;8.63;;;1.20;99.90;;;;;;5056560;28;20224;-71
2022/01/07 09:14:32;;;;;;;18.87;8.27;;;1.40;99.90;;;;;;5059200;28;20216;-72
2022/01/07 09:17:21;;;;;;;19.40;9.13;;;1.30;99.90;;;;;;5046923;28;20320;-71
2022/01/07 09:20:11;;;;;;;19.53;8.73;;;1.30;99.90;;;;;;5040291;28;20231;-69
2022/01/07 09:22:59;;;;;;;21.10;8.50;;;1.30;99.90;;;;;;5043908;28;20227;-72
2022/01/07 09:25:50;;;;;;;18.63;8.73;;;1.30;99.90;;;;;;5057016;28;20282;-70
2022/01/07 09:28:39;;;;;;;15.47;7.73;;;1.20;99.90;;;;;;5058790;28;20573;-70
2022/01/07 09:31:27;;;;;;;17.37;8.00;;;1.10;99.90;;;;;;5058674;28;20739;-70
2022/01/07 09:34:16;;;;;;;20.00;8.30;;;1.10;99.90;;;;;;5057119;28;20228;-67
2022/01/07 09:37:16;;;;;;;21.10;7.80;;;1.10;99.90;;;;;;5043026;28;20224;-72
2022/01/07 09:40:06;;;;;;;22.20;8.23;;;1.20;99.90;;;;;;5055999;28;20238;-71
2022/01/07 09:42:58;;;;;;;18.10;8.40;;;1.20;99.90;;;;;;5055141;28;20208;-72
2022/01/07 09:45:47;;;;;;;21.97;8.60;;;1.20;99.90;;;;;;5058068;28;20235;-70
2022/01/07 09:48:36;;;;;;;18.53;8.87;;;1.30;99.90;;;;;;5052090;28;20227;-70
2022/01/07 09:51:27;;;;;;;21.80;9.13;;;1.40;99.90;;;;;;5058713;28;20224;-70
2022/01/07 09:54:16;;;;;;;18.63;8.63;;;1.50;99.90;;;;;;5039350;28;20748;-70
2022/01/07 09:57:06;;;;;;;19.43;8.23;;;1.40;99.90;;;;;;5044937;28;20246;-69
2022/01/07 09:59:56;;;;;;;19.43;8.37;;;1.50;99.90;;;;;;5054473;28;20215;-72
2022/01/07 10:03:00;;;;;;;15.17;7.83;;;1.50;99.90;;;;;;5057540;28;20228;-71
2022/01/07 10:05:50;;;;;;;20.83;8.30;;;1.50;99.90;;;;;;5051182;28;20769;-70
2022/01/07 10:08:39;;;;;;;21.07;9.10;;;1.50;99.90;;;;;;5040995;28;20228;-69
2022/01/07 10:11:28;;;;;;;17.33;8.03;;;1.50;99.90;;;;;;5044852;28;20734;-70
2022/01/07 10:14:19;;;;;;;21.03;9.20;;;1.60;99.90;;;;;;5054919;28;20228;-70
2022/01/07 10:17:10;;;;;;;17.13;8.77;;;1.60;99.90;;;;;;5045464;28;20221;-70
2022/01/07 10:20:00;;;;;;;16.70;8.43;;;1.70;99.90;;;;;;5043896;28;20231;-69
2022/01/07 10:22:51;;;;;;;17.83;7.83;;;1.80;99.90;;;;;;5044063;28;20232;-70
2022/01/07 10:25:42;;;;;;;17.87;7.63;;;1.90;99.90;;;;;;5059646;28;20223;-71
2022/01/07 10:28:32;;;;;;;19.50;7.80;;;1.90;99.90;;;;;;5057891;28;20713;-72
2022/01/07 10:31:22;;;;;;;18.97;7.97;;;1.90;99.90;;;;;;5041439;28;20216;-69
2022/01/07 10:34:13;;;;;;;16.30;7.77;;;1.90;99.90;;;;;;5047686;28;20278;-69
2022/01/07 10:37:13;;;;;;;15.77;7.50;;;1.90;99.90;;;;;;5058550;28;20538;-70
2022/01/07 10:40:19;;;;;;;16.93;7.80;;;2.00;99.90;;;;;;5055597;28;20216;-70
2022/01/07 10:43:13;;;;;;;18.17;8.03;;;2.00;99.90;;;;;;5057838;28;20302;-70
2022/01/07 10:46:14;;;;;;;17.13;8.27;;;2.10;99.90;;;;;;5047529;28;20218;-70
2022/01/07 10:49:04;;;;;;;15.83;7.33;;;2.10;99.90;;;;;;5045915;28;20327;-70
2022/01/07 10:51:56;;;;;;;16.00;7.70;;;2.10;99.90;;;;;;5060074;28;20220;-70
2022/01/07 10:54:45;;;;;;;15.67;7.33;;;2.20;99.90;;;;;;5051655;28;20716;-71
2022/01/07 10:57:38;;;;;;;17.47;7.70;;;2.20;99.90;;;;;;5045471;28;20309;-71
2022/01/07 11:00:27;;;;;;;17.00;7.30;;;2.30;99.90;;;;;;5056377;28;20224;-70
2022/01/07 11:03:16;;;;;;;17.50;7.60;;;2.20;99.90;;;;;;5046535;28;20295;-69
2022/01/07 11:06:05;;;;;;;12.67;6.97;;;2.20;99.90;;;;;;5042113;28;20228;-70
2022/01/07 11:08:57;;;;;;;15.53;7.87;;;2.20;99.90;;;;;;5050573;28;20603;-71
2022/01/07 11:11:48;;;;;;;17.80;7.67;;;2.20;99.90;;;;;;5044612;28;20307;-70
2022/01/07 11:14:37;;;;;;;15.57;7.70;;;2.20;99.90;;;;;;5054311;28;20224;-73
2022/01/07 11:17:27;;;;;;;16.87;8.10;;;2.30;99.90;;;;;;5051310;28;20916;-70
2022/01/07 11:20:20;;;;;;;16.67;7.73;;;2.30;99.90;;;;;;5053443;28;20224;-67
2022/01/07 11:23:09;;;;;;;15.57;7.73;;;2.30;99.90;;;;;;5060224;28;20227;-68
2022/01/07 11:26:06;;;;;;;17.07;7.80;;;2.30;99.90;;;;;;5059756;28;20236;-68
2022/01/07 11:28:58;;;;;;;19.17;8.20;;;2.40;99.90;;;;;;5054815;28;20558;-69
2022/01/07 11:31:51;;;;;;;17.77;7.53;;;2.40;99.90;;;;;;5058959;28;20285;-71
2022/01/07 11:34:40;;;;;;;15.90;7.27;;;2.40;99.90;;;;;;5057828;28;20235;-69
2022/01/07 11:37:35;;;;;;;18.90;7.90;;;2.30;99.90;;;;;;5057140;28;20229;-68
2022/01/07 11:40:45;;;;;;;18.47;7.73;;;2.30;99.90;;;;;;5041126;28;20379;-70
2022/01/07 11:43:39;;;;;;;22.47;8.70;;;2.40;99.90;;;;;;5047400;28;20212;-70
2022/01/07 11:46:30;;;;;;;15.80;7.70;;;2.50;99.90;;;;;;5055930;28;20303;-70
2022/01/07 11:49:34;;;;;;;16.13;7.67;;;2.40;99.90;;;;;;5056717;28;20216;-70
2022/01/07 11:52:36;;;;;;;16.10;7.33;;;2.40;99.90;;;;;;5045252;28;20216;-70
2022/01/07 11:55:28;;;;;;;15.00;7.33;;;2.40;99.90;;;;;;5046060;28;20593;-71
2022/01/07 11:58:17;;;;;;;15.37;6.97;;;2.40;99.90;;;;;;5023818;28;20232;-71
2022/01/07 12:01:08;;;;;;;17.13;7.50;;;2.50;99.90;;;;;;5036881;28;20232;-69
2022/01/07 12:03:59;;;;;;;18.80;8.40;;;2.50;99.90;;;;;;5031987;28;20217;-69
2022/01/07 12:06:55;;;;;;;13.37;6.53;;;2.60;99.90;;;;;;5030433;28;20232;-70
2022/01/07 12:09:44;;;;;;;18.63;7.47;;;2.60;99.90;;;;;;5023380;28;20220;-69
2022/01/07 12:12:35;;;;;;;15.37;6.90;;;2.70;99.90;;;;;;5022571;28;20304;-69
2022/01/07 12:15:23;;;;;;;15.20;7.47;;;2.70;99.90;;;;;;5039572;28;20721;-69
2022/01/07 12:18:13;;;;;;;17.20;7.30;;;2.70;99.90;;;;;;5025410;28;20740;-69
2022/01/07 12:21:03;;;;;;;18.63;7.47;;;2.70;99.90;;;;;;5025095;28;20735;-69
2022/01/07 12:24:05;;;;;;;14.90;6.93;;;2.70;99.90;;;;;;5023268;28;20229;-70
2022/01/07 12:27:02;;;;;;;17.77;7.10;;;2.70;99.90;;;;;;5032653;28;20251;-69
2022/01/07 12:29:53;;;;;;;17.43;7.10;;;2.60;99.90;;;;;;5036090;28;20217;-70
2022/01/07 12:32:41;;;;;;;14.57;6.90;;;2.60;99.90;;;;;;5033087;28;20221;-69
2022/01/07 12:35:31;;;;;;;16.47;7.37;;;2.60;99.90;;;;;;5031455;28;20248;-69
2022/01/07 12:38:22;;;;;;;13.47;6.87;;;2.60;99.90;;;;;;5035868;28;20271;-68
2022/01/07 12:41:10;;;;;;;14.23;6.73;;;2.50;99.90;;;;;;5040789;28;20228;-69
2022/01/07 12:44:06;;;;;;;13.37;6.53;;;2.60;99.90;;;;;;5019366;28;20308;-70
2022/01/07 12:46:57;;;;;;;14.10;6.30;;;2.50;99.90;;;;;;5032433;28;20218;-70
2022/01/07 12:49:47;;;;;;;14.40;6.83;;;2.50;99.90;;;;;;5035952;28;20220;-70
2022/01/07 12:52:41;;;;;;;15.73;7.10;;;2.60;99.90;;;;;;5025323;28;20224;-69
2022/01/07 12:55:30;;;;;;;16.20;7.10;;;2.50;99.90;;;;;;5027363;28;20735;-70
2022/01/07 12:58:28;;;;;;;16.10;7.10;;;2.60;99.90;;;;;;5053878;28;20833;-70
2022/01/07 13:01:24;;;;;;;17.53;7.73;;;2.60;99.90;;;;;;5054290;28;20231;-71
2022/01/07 13:04:14;;;;;;;16.80;6.83;;;2.60;99.90;;;;;;5054490;28;20235;-71
2022/01/07 13:07:03;;;;;;;18.73;7.60;;;2.60;99.90;;;;;;5050824;28;20243;-71
2022/01/07 13:10:01;;;;;;;15.27;7.27;;;2.50;99.90;;;;;;5035815;28;20240;-70
2022/01/07 13:12:54;;;;;;;18.63;7.77;;;2.50;99.90;;;;;;5039271;28;20672;-69
2022/01/07 13:15:51;;;;;;;21.07;8.40;;;2.50;99.90;;;;;;5052895;28;20390;-71
2022/01/07 13:18:41;;;;;;;17.27;7.80;;;2.50;99.90;;;;;;5053021;28;20228;-70
2022/01/07 13:21:30;;;;;;;18.20;8.73;;;2.50;99.90;;;;;;5052070;28;20227;-70
2022/01/07 13:24:22;;;;;;;23.13;8.23;;;2.60;99.90;;;;;;5054959;28;20223;-69
2022/01/07 13:27:12;;;;;;;14.27;7.43;;;2.60;99.90;;;;;;5016135;28;20217;-71
2022/01/07 13:30:01;;;;;;;20.20;8.43;;;2.60;99.90;;;;;;5040578;28;20228;-70
2022/01/07 13:33:06;;;;;;;21.60;8.27;;;2.60;99.90;;;;;;5050973;28;20716;-69
2022/01/07 13:36:16;;;;;;;18.57;8.13;;;2.70;99.90;;;;;;5050922;28;20248;-71
2022/01/07 13:39:06;;;;;;;17.37;8.10;;;2.70;99.90;;;;;;5035397;28;20243;-72
2022/01/07 13:41:57;;;;;;;19.20;7.80;;;2.70;99.90;;;;;;5036065;28;20220;-71
2022/01/07 13:44:55;;;;;;;22.73;8.37;;;2.70;99.90;;;;;;5053757;28;20216;-72
2022/01/07 13:47:46;;;;;;;19.47;7.77;;;2.70;99.90;;;;;;5051941;28;20217;-71
2022/01/07 13:50:38;;;;;;;16.80;8.00;;;2.70;99.90;;;;;;5042283;28;20247;-71
2022/01/07 13:53:27;;;;;;;17.63;7.63;;;2.60;99.90;;;;;;5041747;28;20220;-72
2022/01/07 13:56:15;;;;;;;18.60;7.53;;;2.70;99.90;;;;;;5041497;28;20255;-69
2022/01/07 13:59:07;;;;;;;14.23;6.53;;;2.70;99.90;;;;;;5046355;28;20256;-70
2022/01/07 14:02:00;;;;;;;16.27;6.97;;;2.70;99.90;;;;;;5058654;28;20592;-70
2022/01/07 14:04:51;;;;;;;14.90;6.90;;;2.70;99.90;;;;;;5053815;28;20677;-72
2022/01/07 14:07:47;;;;;;;15.77;6.97;;;2.70;99.90;;;;;;5056822;28;20232;-69
2022/01/07 14:10:36;;;;;;;16.07;7.20;;;2.70;99.90;;;;;;5038004;28;20233;-71
2022/01/07 14:13:29;;;;;;;15.77;7.07;;;2.60;99.90;;;;;;5049415;28;20342;-70
2022/01/07 14:16:24;;;;;;;13.83;6.77;;;2.60;99.90;;;;;;5056767;28;20225;-70
2022/01/07 14:19:15;;;;;;;15.20;6.80;;;2.60;99.90;;;;;;5043374;28;20224;-71
2022/01/07 14:22:04;;;;;;;16.47;6.73;;;2.60;99.90;;;;;;5046064;28;20252;-69
2022/01/07 14:24:53;;;;;;;20.03;7.33;;;2.60;99.90;;;;;;5053478;28;20232;-71
2022/01/07 14:27:43;;;;;;;18.70;6.87;;;2.60;99.90;;;;;;5056681;28;20220;-70
2022/01/07 14:30:31;;;;;;;16.23;7.40;;;2.50;99.90;;;;;;5044135;28;20221;-71
2022/01/07 14:33:20;;;;;;;18.77;7.77;;;2.60;99.90;;;;;;5056871;28;20224;-69
2022/01/07 14:36:11;;;;;;;16.20;6.87;;;2.50;99.90;;;;;;5059048;28;20229;-68
2022/01/07 14:38:59;;;;;;;17.80;7.13;;;2.50;99.90;;;;;;5041899;28;20224;-69
2022/01/07 14:41:48;;;;;;;17.53;7.73;;;2.40;99.90;;;;;;5043673;28;20222;-69
2022/01/07 14:44:38;;;;;;;17.20;7.73;;;2.40;99.90;;;;;;5044975;28;20228;-69